Time;durP1;ratioP1;P1;durP2;ratioP2;P2;SDS_P1;SDS_P2;PMS_P1;PMS_P2;Temp;Humidity;BMP_temperature;BMP_pressure;BME280_temperature;BME280_humidity;BME280_pressure;Samples;Min_cycle;Max_cycle;Signal;HPM_P1;HPM_P2
2022/03/08 00:01:40;;;;;;;14.25;12.73;;;5.90;36.20;;;-142.21;37.85;112049.66;5072581;28;20613;-77
2022/03/08 00:04:07;;;;;;;15.02;13.43;;;5.90;36.00;;;-142.21;38.20;112049.66;5073936;28;20704;-78
2022/03/08 00:06:35;;;;;;;13.73;12.32;;;5.90;36.00;;;-142.21;38.04;112049.66;5074181;28;20201;-78
2022/03/08 00:09:02;;;;;;;12.40;11.07;;;5.90;36.20;;;-142.21;38.44;112049.66;5072854;28;20240;-76
2022/03/08 00:11:31;;;;;;;15.00;12.82;;;5.90;36.20;;;-142.21;38.35;112049.66;5074131;28;20212;-76
2022/03/08 00:13:58;;;;;;;14.65;13.05;;;5.90;36.30;;;-142.21;38.42;112049.66;5073229;28;20292;-77
2022/03/08 00:16:25;;;;;;;13.65;12.18;;;5.80;36.10;;;-142.21;39.08;112049.66;5073704;28;20270;-76
2022/03/08 00:18:52;;;;;;;13.90;12.50;;;5.80;36.60;;;-142.21;38.82;112049.66;5073437;28;20201;-79
2022/03/08 00:21:20;;;;;;;13.50;11.95;;;5.90;36.80;;;-142.21;38.32;112049.66;5073699;28;20232;-77
2022/03/08 00:23:48;;;;;;;13.73;12.10;;;5.80;36.40;;;-142.21;38.50;112049.66;5073979;28;20197;-76
2022/03/08 00:26:16;;;;;;;13.77;12.38;;;5.80;36.60;;;-142.21;38.69;112049.66;5072746;28;20233;-74
2022/03/08 00:28:45;;;;;;;20.02;13.05;;;5.90;36.70;;;-142.21;39.51;112049.66;5073585;28;20197;-73
2022/03/08 00:31:12;;;;;;;13.77;12.38;;;5.80;36.60;;;-142.21;39.23;112049.66;5073216;28;20321;-74
2022/03/08 00:33:41;;;;;;;14.27;12.77;;;5.80;36.70;;;-142.21;38.76;112049.66;5074248;28;20205;-78
2022/03/08 00:36:08;;;;;;;13.30;11.95;;;5.80;36.60;;;-142.21;39.09;112049.66;5081754;28;20236;-75
2022/03/08 00:38:36;;;;;;;15.10;12.77;;;5.80;36.80;;;-142.21;39.22;112049.66;5073843;28;20263;-74
2022/03/08 00:41:03;;;;;;;13.68;12.02;;;5.70;36.70;;;-142.21;39.53;112049.66;5072513;28;20247;-75
2022/03/08 00:43:31;;;;;;;14.13;12.10;;;5.70;37.00;;;-142.21;39.71;112049.66;5072648;28;20215;-74
2022/03/08 00:45:59;;;;;;;14.15;12.38;;;5.70;36.90;;;-142.21;39.44;112049.66;5076784;28;20247;-79
2022/03/08 00:48:27;;;;;;;15.00;12.77;;;5.70;36.80;;;-142.21;39.69;112049.66;5072635;28;20237;-77
2022/03/08 00:50:54;;;;;;;13.60;12.18;;;5.60;37.30;;;-142.21;40.25;112049.66;5073087;28;20217;-75
2022/03/08 00:53:21;;;;;;;13.32;11.93;;;5.60;37.10;;;-142.21;40.01;112049.66;5072483;28;20260;-75
2022/03/08 00:55:49;;;;;;;13.77;12.27;;;5.60;37.60;;;-142.21;40.15;112049.66;5055254;28;20244;-76
2022/03/08 00:58:16;;;;;;;13.07;11.77;;;5.60;37.40;;;-142.21;40.23;112049.66;5072719;28;20283;-77
2022/03/08 01:00:43;;;;;;;13.38;11.77;;;5.50;37.00;;;-142.21;40.57;112049.66;5072436;28;20274;-75
2022/03/08 01:03:12;;;;;;;14.57;12.43;;;5.50;37.20;;;-142.21;40.60;112049.66;5073283;28;20284;-75
2022/03/08 01:05:40;;;;;;;14.35;11.68;;;5.40;37.30;;;-142.21;40.21;112049.66;5081913;28;20196;-76
2022/03/08 01:08:08;;;;;;;15.63;11.95;;;5.40;37.70;;;-142.21;40.78;112049.66;5074633;28;20259;-75
2022/03/08 01:10:35;;;;;;;12.27;11.07;;;5.30;37.90;;;-142.21;40.48;112049.66;5055963;28;20275;-72
2022/03/08 01:13:03;;;;;;;13.15;11.85;;;5.30;38.00;;;-142.21;40.66;112049.66;5072209;28;20193;-75
2022/03/08 01:15:31;;;;;;;14.95;11.52;;;5.30;38.00;;;-142.21;40.64;112049.66;5072080;28;20657;-74
2022/03/08 01:17:59;;;;;;;12.57;11.27;;;5.40;38.30;;;-142.21;40.51;112049.66;5074450;28;20465;-74
2022/03/08 01:20:28;;;;;;;13.40;11.98;;;5.40;37.80;;;-142.21;40.58;112049.66;5072787;28;20205;-77
2022/03/08 01:22:56;;;;;;;13.00;11.57;;;5.30;38.30;;;-142.21;40.92;112049.66;5072224;28;20246;-76
2022/03/08 01:25:24;;;;;;;14.02;11.77;;;5.30;38.00;;;-142.21;39.84;112049.66;5074038;28;20197;-75
2022/03/08 01:27:52;;;;;;;13.93;12.45;;;5.20;38.00;;;-142.21;40.61;112049.66;5071881;28;20202;-74
2022/03/08 01:30:23;;;;;;;13.32;11.60;;;5.20;38.20;;;-142.21;40.57;112049.66;5072596;28;20229;-74
2022/03/08 01:32:50;;;;;;;13.40;11.60;;;5.20;38.50;;;-142.21;40.99;112049.66;5071842;28;20232;-75
2022/03/08 01:35:18;;;;;;;15.95;11.93;;;5.20;38.20;;;-142.21;41.35;112049.66;5084119;28;20204;-73
2022/03/08 01:37:47;;;;;;;14.93;11.95;;;5.20;38.50;;;-142.21;40.67;112049.66;5072468;28;20209;-74
2022/03/08 01:40:16;;;;;;;12.65;10.70;;;5.10;38.40;;;-142.21;40.54;112049.66;5072614;28;20251;-74
2022/03/08 01:42:46;;;;;;;12.65;11.00;;;5.10;38.40;;;-142.21;40.33;112049.66;5071995;28;20197;-75
2022/03/08 01:45:14;;;;;;;12.95;11.15;;;5.10;38.60;;;-142.21;40.22;112049.66;5072245;28;20254;-74
2022/03/08 01:47:42;;;;;;;13.32;10.55;;;5.20;38.70;;;-142.21;40.24;112049.66;5072607;28;20541;-73
2022/03/08 01:50:12;;;;;;;13.48;11.73;;;5.10;38.50;;;-142.21;40.27;112049.66;5071362;28;20716;-75
2022/03/08 01:52:41;;;;;;;13.32;11.80;;;5.00;38.90;;;-142.21;39.91;112049.66;5084524;28;20594;-75
2022/03/08 01:55:12;;;;;;;12.63;11.32;;;4.90;38.60;;;-142.21;39.93;112049.66;5092212;28;20653;-75
2022/03/08 01:57:39;;;;;;;13.27;10.88;;;4.90;38.70;;;-142.21;39.91;112049.66;5072667;28;20243;-75
2022/03/08 02:00:13;;;;;;;12.57;11.27;;;4.90;38.70;;;-142.21;39.92;112049.66;5071898;28;20313;-75
2022/03/08 02:02:42;;;;;;;13.55;11.27;;;4.90;38.80;;;-142.21;39.73;112049.66;5072500;28;20248;-74
2022/03/08 02:05:10;;;;;;;12.57;11.07;;;4.80;38.70;;;-142.21;39.83;112049.66;5071157;28;20731;-74
2022/03/08 02:07:38;;;;;;;11.88;10.60;;;4.80;39.00;;;-142.21;39.58;112049.66;5072115;28;20221;-75
2022/03/08 02:10:09;;;;;;;13.27;10.30;;;4.80;38.80;;;-142.21;39.67;112049.66;5071798;28;20252;-74
2022/03/08 02:12:38;;;;;;;11.38;10.10;;;4.80;38.80;;;-142.21;39.53;112049.66;5072665;28;20212;-76
2022/03/08 02:15:18;;;;;;;14.35;11.48;;;4.90;38.90;;;-142.21;39.81;112049.66;5082888;28;20292;-73
2022/03/08 02:17:46;;;;;;;13.55;10.65;;;4.90;38.80;;;-142.21;39.73;112049.66;5071690;28;20200;-74
2022/03/08 02:20:17;;;;;;;12.35;10.65;;;5.00;39.30;;;-142.21;40.31;112049.66;5071140;28;20239;-75
2022/03/08 02:22:48;;;;;;;11.77;10.48;;;5.00;38.70;;;-142.21;40.13;112049.66;5071944;28;20254;-73
2022/03/08 02:25:17;;;;;;;11.30;10.10;;;5.00;38.70;;;-142.21;40.26;112049.66;5076742;28;20209;-74
2022/03/08 02:27:47;;;;;;;11.55;10.43;;;4.90;38.70;;;-142.21;40.25;112049.66;5075926;28;20196;-74
2022/03/08 02:30:16;;;;;;;12.27;10.82;;;4.70;38.90;;;-142.21;40.25;112049.66;5075517;28;20311;-75
2022/03/08 02:32:45;;;;;;;14.82;10.77;;;4.70;39.20;;;-142.21;40.45;112049.66;5076292;28;20255;-73
2022/03/08 02:35:15;;;;;;;11.60;10.15;;;4.70;39.30;;;-142.21;40.56;112049.66;5076649;28;20201;-75
2022/03/08 02:37:48;;;;;;;11.95;10.02;;;4.60;39.50;;;-142.21;40.44;112049.66;5076082;28;20209;-76
2022/03/08 02:40:19;;;;;;;12.13;10.25;;;4.60;39.70;;;-142.21;40.32;112049.66;5076106;28;20642;-77
2022/03/08 02:42:47;;;;;;;11.40;10.30;;;4.50;39.80;;;-142.21;40.32;112049.66;5084092;28;20193;-75
2022/03/08 02:45:16;;;;;;;11.50;10.30;;;4.60;39.90;;;-142.21;40.51;112049.66;5083290;28;20258;-74
2022/03/08 02:47:44;;;;;;;12.50;11.20;;;4.60;39.60;;;-142.21;40.25;112049.66;5075258;28;20235;-76
2022/03/08 02:50:14;;;;;;;11.05;9.55;;;4.70;39.30;;;-142.21;40.24;112049.66;5084562;28;20225;-77
2022/03/08 02:52:51;;;;;;;11.25;10.05;;;4.70;40.20;;;-142.21;40.31;112049.66;5087611;28;20197;-76
2022/03/08 02:55:20;;;;;;;11.48;10.20;;;4.90;39.40;;;-142.21;40.20;112049.66;5093374;28;20232;-75
2022/03/08 02:57:47;;;;;;;11.55;10.20;;;4.90;39.80;;;-142.21;40.78;112049.66;5075036;28;20205;-74
2022/03/08 03:00:19;;;;;;;11.88;10.40;;;4.90;39.00;;;-142.21;41.07;112049.66;5076959;28;20304;-75
2022/03/08 03:02:47;;;;;;;12.55;10.32;;;5.00;39.40;;;-142.21;41.03;112049.66;5073457;28;20201;-74
2022/03/08 03:05:15;;;;;;;10.93;9.50;;;5.10;38.90;;;-142.21;41.17;112049.66;5075606;28;20279;-74
2022/03/08 03:07:43;;;;;;;11.73;10.40;;;5.10;38.80;;;-142.21;41.51;112049.66;5074850;28;20201;-74
2022/03/08 03:10:16;;;;;;;11.50;10.25;;;5.00;38.70;;;-142.21;42.17;112049.66;5075144;28;20699;-73
2022/03/08 03:12:43;;;;;;;12.75;10.45;;;4.90;39.10;;;-142.21;42.49;112049.66;5079894;28;20185;-74
2022/03/08 03:15:14;;;;;;;11.75;10.35;;;5.00;39.20;;;-142.21;42.78;112049.66;5075231;28;20232;-74
2022/03/08 03:17:42;;;;;;;11.70;10.18;;;4.90;39.40;;;-142.21;43.02;112049.66;5090523;28;20192;-74
2022/03/08 03:20:13;;;;;;;11.93;10.30;;;4.90;39.20;;;-142.21;42.75;112049.66;5087392;28;20693;-74
2022/03/08 03:22:41;;;;;;;12.10;10.38;;;4.90;39.20;;;-142.21;43.90;112049.66;5075885;28;20730;-74
2022/03/08 03:25:11;;;;;;;14.23;10.98;;;4.80;39.40;;;-142.21;43.61;112049.66;5074565;28;20209;-76
2022/03/08 03:27:39;;;;;;;12.70;11.40;;;4.80;39.70;;;-142.21;44.29;112049.66;5075806;28;20232;-75
2022/03/08 03:30:10;;;;;;;11.35;10.15;;;4.80;39.90;;;-142.21;44.03;112049.66;5075171;28;20205;-75
2022/03/08 03:32:38;;;;;;;13.75;11.55;;;4.60;40.50;;;-142.21;44.69;112049.66;5074997;28;20252;-75
2022/03/08 03:35:08;;;;;;;13.93;10.55;;;4.60;40.60;;;-142.21;44.22;112049.66;5074739;28;20291;-75
2022/03/08 03:37:36;;;;;;;13.85;10.60;;;4.60;40.90;;;-142.21;44.23;112049.66;5075103;28;20225;-75
2022/03/08 03:40:05;;;;;;;12.55;10.60;;;4.50;41.20;;;-142.21;43.90;112049.66;5074867;28;20293;-76
2022/03/08 03:42:34;;;;;;;12.45;10.27;;;4.40;40.90;;;-142.21;43.31;112049.66;5075732;28;20201;-76
2022/03/08 03:45:01;;;;;;;11.65;10.45;;;4.30;40.60;;;-142.21;42.44;112049.66;5075402;28;20617;-76
2022/03/08 03:47:28;;;;;;;11.68;10.48;;;4.20;40.40;;;-142.21;42.39;112049.66;5074681;28;20293;-76
2022/03/08 03:49:56;;;;;;;11.57;10.20;;;4.30;40.30;;;-142.21;41.76;112049.66;5075590;28;20594;-74
2022/03/08 03:52:23;;;;;;;12.45;10.02;;;4.30;40.60;;;-142.21;42.53;112049.66;5074583;28;20244;-76
2022/03/08 03:54:51;;;;;;;10.60;9.40;;;4.40;40.30;;;-142.21;41.81;112049.66;5074880;28;20252;-76
2022/03/08 03:57:20;;;;;;;11.38;10.02;;;4.40;40.00;;;-142.21;41.66;112049.66;5056999;28;20196;-75
2022/03/08 03:59:48;;;;;;;11.30;10.00;;;4.50;40.00;;;-142.21;42.03;112049.66;5074976;28;20217;-76
2022/03/08 04:02:16;;;;;;;11.43;9.32;;;4.50;39.70;;;-142.21;42.17;112049.66;5074715;28;20275;-75
2022/03/08 04:04:46;;;;;;;11.25;10.18;;;4.60;39.90;;;-142.21;42.90;112049.66;5073454;28;20212;-76
2022/03/08 04:07:13;;;;;;;12.32;9.85;;;4.50;40.10;;;-142.21;42.82;112049.66;5074709;28;20209;-75
2022/03/08 04:09:40;;;;;;;9.63;8.63;;;4.60;39.80;;;-142.21;43.22;112049.66;5074140;28;20278;-76
2022/03/08 04:12:09;;;;;;;11.27;10.07;;;4.60;39.90;;;-142.21;43.58;112049.66;5074217;28;20627;-76
2022/03/08 04:14:36;;;;;;;10.35;9.30;;;4.70;40.60;;;-142.21;43.19;112049.66;5091584;28;20205;-76
2022/03/08 04:17:05;;;;;;;11.05;9.75;;;4.60;40.10;;;-142.21;43.71;112049.66;5074019;28;20208;-75
2022/03/08 04:19:33;;;;;;;11.15;9.82;;;4.70;40.00;;;-142.21;43.78;112049.66;5074778;28;20201;-77
2022/03/08 04:22:00;;;;;;;11.52;10.23;;;4.70;40.20;;;-142.21;43.91;112049.66;5077405;28;20220;-77
2022/03/08 04:24:28;;;;;;;11.57;10.13;;;4.70;40.40;;;-142.21;44.18;112049.66;5093136;28;20647;-77
2022/03/08 04:26:55;;;;;;;10.15;9.05;;;4.70;40.20;;;-142.21;43.99;112049.66;5073891;28;20205;-76
2022/03/08 04:29:22;;;;;;;12.15;9.88;;;4.60;40.00;;;-142.21;44.08;112049.66;5074127;28;20228;-74
2022/03/08 04:31:50;;;;;;;11.70;9.88;;;4.50;40.80;;;-142.21;44.39;112049.66;5073758;28;20308;-75
2022/03/08 04:34:18;;;;;;;10.90;9.50;;;4.60;40.50;;;-142.21;44.74;112049.66;5074810;28;20718;-75
2022/03/08 04:36:46;;;;;;;11.32;9.32;;;4.60;40.80;;;-142.21;44.18;112049.66;5076349;28;20261;-75
2022/03/08 04:39:15;;;;;;;11.23;9.90;;;4.50;40.60;;;-142.21;44.37;112049.66;5077932;28;20710;-75
2022/03/08 04:41:42;;;;;;;11.20;9.48;;;4.60;40.40;;;-142.21;44.44;112049.66;5074494;28;20208;-75
2022/03/08 04:44:09;;;;;;;10.85;9.23;;;4.60;40.60;;;-142.21;44.10;112049.66;5086544;28;20667;-75
2022/03/08 04:46:37;;;;;;;11.20;10.00;;;4.60;40.50;;;-142.21;44.09;112049.66;5074003;28;20246;-76
2022/03/08 04:49:04;;;;;;;10.98;9.73;;;4.60;40.20;;;-142.21;44.14;112049.66;5073738;28;20254;-75
2022/03/08 04:51:33;;;;;;;10.68;9.52;;;4.60;40.00;;;-142.21;43.95;112049.66;5074223;28;20260;-75
2022/03/08 04:54:00;;;;;;;11.77;10.45;;;4.50;39.90;;;-142.21;44.93;112049.66;5073290;28;20636;-75
2022/03/08 04:56:28;;;;;;;11.52;9.40;;;4.60;40.40;;;-142.21;44.33;112049.66;5073933;28;20642;-76
2022/03/08 04:58:56;;;;;;;11.35;9.88;;;4.40;40.20;;;-142.21;44.74;112049.66;5072934;28;20217;-75
2022/03/08 05:01:23;;;;;;;10.77;9.60;;;4.60;40.40;;;-142.21;45.14;112049.66;5073596;28;20288;-77
2022/03/08 05:03:51;;;;;;;10.93;9.82;;;4.50;40.90;;;-142.21;45.67;112049.66;5073608;28;20231;-75
2022/03/08 05:06:19;;;;;;;11.13;9.80;;;4.40;40.70;;;-142.21;45.32;112049.66;5064318;28;20252;-75
2022/03/08 05:08:48;;;;;;;11.77;9.65;;;4.50;41.00;;;-142.21;45.98;112049.66;5082992;28;20201;-76
2022/03/08 05:11:15;;;;;;;10.50;9.40;;;4.40;41.00;;;-142.21;46.59;112049.66;5068427;28;20276;-76
2022/03/08 05:13:43;;;;;;;11.68;9.85;;;4.30;41.20;;;-142.21;47.90;112049.66;5062496;28;20226;-76
2022/03/08 05:16:10;;;;;;;11.20;9.93;;;4.30;41.70;;;-142.21;47.78;112049.66;5067052;28;20689;-75
2022/03/08 05:18:37;;;;;;;12.70;10.30;;;4.50;41.80;;;-142.21;48.24;112049.66;5054907;28;20275;-75
2022/03/08 05:21:05;;;;;;;11.45;10.25;;;4.30;41.80;;;-142.21;48.09;112049.66;5057703;28;20237;-75
2022/03/08 05:23:32;;;;;;;10.95;9.57;;;4.30;41.80;;;-142.21;47.84;112049.66;5056193;28;20289;-76
2022/03/08 05:26:05;;;;;;;11.88;10.23;;;4.30;41.60;;;-142.21;47.98;112049.66;5067745;28;20222;-75
2022/03/08 05:28:32;;;;;;;11.93;9.57;;;4.20;42.20;;;-142.21;47.97;112049.66;5074249;28;20561;-75
2022/03/08 05:31:00;;;;;;;11.63;9.95;;;4.20;42.50;;;-142.21;47.16;112049.66;5072700;28;20685;-75
2022/03/08 05:33:27;;;;;;;10.40;9.30;;;4.20;41.50;;;-142.21;46.98;112049.66;5077768;28;20224;-74
2022/03/08 05:35:54;;;;;;;11.20;9.27;;;4.20;41.60;;;-142.21;46.98;112049.66;5071782;28;20201;-74
2022/03/08 05:38:21;;;;;;;10.80;9.65;;;4.20;41.50;;;-142.21;46.98;112049.66;5073334;28;20256;-74
2022/03/08 05:40:49;;;;;;;11.25;9.07;;;4.20;41.40;;;-142.21;46.39;112049.66;5073015;28;20201;-74
2022/03/08 05:43:17;;;;;;;12.30;9.50;;;4.20;41.30;;;-142.21;46.19;112049.66;5080950;28;20193;-74
2022/03/08 05:45:45;;;;;;;12.35;9.40;;;4.30;41.50;;;-142.21;46.87;112049.66;5079296;28;20266;-76
2022/03/08 05:48:12;;;;;;;11.20;9.13;;;4.40;41.00;;;-142.21;46.71;112049.66;5072223;28;20228;-73
2022/03/08 05:50:40;;;;;;;11.00;9.18;;;4.50;41.30;;;-142.21;47.39;112049.66;5072796;28;20296;-74
2022/03/08 05:53:07;;;;;;;10.68;8.95;;;4.30;41.30;;;-142.21;46.84;112049.66;5080169;28;20254;-75
2022/03/08 05:55:35;;;;;;;11.93;9.60;;;4.30;41.20;;;-142.21;46.52;112049.66;5087578;28;20243;-74
2022/03/08 05:58:02;;;;;;;11.45;9.88;;;4.40;41.30;;;-142.21;46.51;112049.66;5058947;28;20617;-75
2022/03/08 06:00:31;;;;;;;11.30;9.50;;;4.30;41.20;;;-142.21;46.66;112049.66;5072774;28;20204;-76
2022/03/08 06:02:58;;;;;;;12.93;8.88;;;4.30;41.00;;;-142.21;47.06;112049.66;5051822;28;20206;-74
2022/03/08 06:05:25;;;;;;;12.13;9.68;;;4.40;41.00;;;-142.21;47.37;112049.66;5053520;28;20276;-74
2022/03/08 06:07:52;;;;;;;10.00;8.95;;;4.40;41.20;;;-142.21;47.72;112049.66;5061732;28;20233;-75
2022/03/08 06:10:20;;;;;;;11.43;9.18;;;4.30;41.50;;;-142.21;47.01;112049.66;5058940;28;20293;-76
2022/03/08 06:12:47;;;;;;;11.30;9.98;;;4.20;41.40;;;-142.21;47.66;112049.66;5066592;28;20229;-73
2022/03/08 06:15:14;;;;;;;9.88;8.88;;;4.20;41.60;;;-142.21;48.77;112049.66;5071700;28;20244;-73
2022/03/08 06:17:43;;;;;;;11.02;9.32;;;4.20;41.60;;;-142.21;49.13;112049.66;5067083;28;20206;-74
2022/03/08 06:20:12;;;;;;;10.15;9.13;;;4.30;41.80;;;-142.21;48.96;112049.66;5057944;28;20229;-75
2022/03/08 06:22:40;;;;;;;11.27;9.68;;;4.30;41.90;;;-142.21;49.00;112049.66;5055390;28;20201;-75
2022/03/08 06:25:08;;;;;;;10.60;9.50;;;4.30;41.70;;;-142.21;50.50;112049.66;5061950;28;20649;-76
2022/03/08 06:27:36;;;;;;;10.95;9.77;;;4.30;41.80;;;-142.21;49.59;112049.66;5072191;28;20201;-78
2022/03/08 06:30:06;;;;;;;10.80;9.70;;;4.40;41.80;;;-142.21;49.32;112049.66;5073916;28;20254;-78
2022/03/08 06:32:33;;;;;;;11.10;9.18;;;4.50;42.30;;;-142.21;49.09;112049.66;5072216;28;20582;-78
2022/03/08 06:35:02;;;;;;;11.23;9.65;;;4.60;42.70;;;-142.21;49.77;112049.66;5074761;28;20217;-75
2022/03/08 06:37:29;;;;;;;11.02;9.43;;;4.70;41.90;;;-142.21;49.61;112049.66;5057377;28;20206;-79
2022/03/08 06:39:57;;;;;;;10.93;8.98;;;4.90;41.80;;;-142.21;49.08;112049.66;5074425;28;20201;-78
2022/03/08 06:42:24;;;;;;;11.82;8.80;;;4.90;41.70;;;-142.21;48.63;112049.66;5082456;28;20596;-79
2022/03/08 06:44:51;;;;;;;9.55;8.27;;;4.90;41.50;;;-142.21;47.80;112049.66;5088030;28;20215;-77
2022/03/08 06:47:19;;;;;;;10.25;8.75;;;4.90;41.50;;;-142.21;47.95;112049.66;5073031;28;20226;-76
2022/03/08 06:49:47;;;;;;;11.05;9.43;;;4.90;41.40;;;-142.21;47.32;112049.66;5051848;28;20214;-77
2022/03/08 06:52:16;;;;;;;10.68;9.25;;;4.90;41.40;;;-142.21;47.67;112049.66;5054619;28;20222;-75
2022/03/08 06:54:43;;;;;;;15.18;10.10;;;4.90;41.70;;;-142.21;48.19;112049.66;5051469;28;20237;-74
2022/03/08 06:57:10;;;;;;;11.65;8.98;;;5.10;41.80;;;-142.21;47.21;112049.66;5072315;28;20197;-75
2022/03/08 06:59:38;;;;;;;11.93;9.90;;;5.10;41.50;;;-142.21;46.87;112049.66;5091592;28;20236;-76
2022/03/08 07:02:07;;;;;;;10.85;9.73;;;5.10;41.40;;;-142.21;45.47;112049.66;5073885;28;20202;-76
2022/03/08 07:04:36;;;;;;;13.02;9.95;;;5.00;41.50;;;-142.21;46.21;112049.66;5071727;28;20225;-81
2022/03/08 07:07:03;;;;;;;10.40;9.30;;;5.20;41.60;;;-142.21;46.18;112049.66;5072677;28;20233;-81
2022/03/08 07:09:32;;;;;;;10.88;9.55;;;5.40;41.60;;;-142.21;46.32;112049.66;5075028;28;20237;-78
2022/03/08 07:12:02;;;;;;;11.52;9.48;;;5.50;41.10;;;-142.21;45.60;112049.66;5073225;28;20266;-81
2022/03/08 07:14:30;;;;;;;10.43;9.32;;;5.80;41.10;;;-142.21;44.89;112049.66;5078161;28;20193;-78
2022/03/08 07:16:57;;;;;;;10.43;8.93;;;6.10;40.60;;;-142.21;44.24;112049.66;5074367;28;20280;-79
2022/03/08 07:19:24;;;;;;;9.47;8.47;;;6.80;39.70;;;-142.21;44.17;112049.66;5074922;28;20292;-78
2022/03/08 07:21:52;;;;;;;11.37;9.40;;;7.20;38.50;;;-142.21;43.74;112049.66;5075118;28;20807;-81
2022/03/08 07:24:19;;;;;;;10.53;8.90;;;7.00;37.80;;;-142.21;44.10;112049.66;5075580;28;20862;-81
2022/03/08 07:26:48;;;;;;;10.17;9.00;;;7.10;38.40;;;-142.21;43.08;112049.66;5076216;28;21018;-80
2022/03/08 07:29:15;;;;;;;12.40;9.17;;;7.30;38.40;;;-142.21;43.75;112049.66;5075361;28;20543;-78
2022/03/08 07:31:42;;;;;;;9.67;8.67;;;7.30;38.10;;;-142.21;43.71;112049.66;5075035;28;20467;-76
2022/03/08 07:34:10;;;;;;;9.50;8.50;;;7.90;38.00;;;-142.21;42.84;112049.66;5082400;28;20478;-77
2022/03/08 07:36:38;;;;;;;9.77;8.77;;;8.60;36.40;;;-142.21;43.15;112049.66;5095446;28;20482;-77
2022/03/08 07:39:06;;;;;;;10.40;9.20;;;8.50;36.30;;;-142.21;42.05;112049.66;5080302;28;20447;-76
2022/03/08 07:41:33;;;;;;;9.73;8.73;;;9.10;36.00;;;-142.21;41.68;112049.66;5074543;28;20447;-77
2022/03/08 07:44:03;;;;;;;10.00;9.00;;;9.10;34.60;;;-142.21;42.55;112049.66;5074276;28;20964;-76
2022/03/08 07:46:30;;;;;;;11.13;8.80;;;8.70;35.10;;;-142.21;42.58;112049.66;5074603;28;20493;-77
2022/03/08 07:48:58;;;;;;;10.10;9.10;;;8.30;35.40;;;-142.21;42.07;112049.66;5075072;28;20947;-76
2022/03/08 07:51:30;;;;;;;10.43;9.33;;;8.10;35.70;;;-142.21;41.05;112049.66;5074213;28;20447;-78
2022/03/08 07:53:59;;;;;;;10.10;8.93;;;7.80;35.70;;;-142.21;41.56;112049.66;5074724;28;20901;-77
2022/03/08 07:56:26;;;;;;;11.23;8.90;;;7.30;36.30;;;-142.21;40.51;112049.66;5075033;28;20451;-75
2022/03/08 07:59:01;;;;;;;9.70;8.63;;;7.40;36.40;;;-142.21;40.60;112049.66;5074102;28;20463;-74
2022/03/08 08:01:29;;;;;;;10.17;8.60;;;8.60;36.50;;;-142.21;41.62;112049.66;5073259;28;20475;-74
2022/03/08 08:03:56;;;;;;;8.83;8.03;;;9.70;35.80;;;-142.21;42.17;112049.66;5073815;28;20466;-80
2022/03/08 08:06:23;;;;;;;9.87;8.97;;;10.40;33.40;;;-142.21;41.14;112049.66;5073311;28;20478;-79
2022/03/08 08:08:50;;;;;;;10.97;8.80;;;9.90;33.50;;;-142.21;40.81;112049.66;5073588;28;20439;-79
2022/03/08 08:11:18;;;;;;;12.07;9.37;;;9.70;34.10;;;-142.21;40.62;112049.66;5073936;28;20456;-74
2022/03/08 08:13:45;;;;;;;10.53;9.37;;;9.40;33.40;;;-142.21;40.08;112049.66;5073456;28;20549;-78
2022/03/08 08:16:14;;;;;;;11.83;9.00;;;9.30;33.50;;;-142.21;40.16;112049.66;5073339;28;20455;-79
2022/03/08 08:18:42;;;;;;;10.13;9.00;;;9.30;33.50;;;-142.21;40.37;112049.66;5072662;28;20467;-77
2022/03/08 08:21:11;;;;;;;9.90;8.90;;;9.20;33.80;;;-142.21;40.01;112049.66;5073624;28;20856;-79
2022/03/08 08:23:38;;;;;;;9.50;8.50;;;9.00;33.70;;;-142.21;41.39;112049.66;5071907;28;20451;-79
2022/03/08 08:26:06;;;;;;;12.50;8.67;;;8.80;34.30;;;-142.21;40.01;112049.66;5073732;28;20440;-79
2022/03/08 08:28:33;;;;;;;10.43;8.70;;;8.70;34.30;;;-142.21;39.75;112049.66;5055363;28;20971;-79
2022/03/08 08:31:01;;;;;;;10.80;8.30;;;8.70;34.60;;;-142.21;39.10;112049.66;5073536;28;20546;-79
2022/03/08 08:33:29;;;;;;;10.07;9.07;;;8.60;34.20;;;-142.21;40.09;112049.66;5073450;28;20486;-78
2022/03/08 08:35:57;;;;;;;8.67;7.77;;;8.50;34.40;;;-142.21;39.76;112049.66;5072997;28;20861;-78
2022/03/08 08:38:24;;;;;;;9.47;8.23;;;8.50;34.90;;;-142.21;39.75;112049.66;5059476;28;20487;-80
2022/03/08 08:40:52;;;;;;;10.23;8.10;;;8.50;34.80;;;-142.21;39.46;112049.66;5072556;28;20447;-79
2022/03/08 08:43:20;;;;;;;9.13;8.20;;;8.40;34.50;;;-142.21;38.75;112049.66;5085611;28;20478;-79
2022/03/08 08:45:51;;;;;;;9.00;7.93;;;8.60;34.80;;;-142.21;38.62;112049.66;5076799;28;20443;-80
2022/03/08 08:48:20;;;;;;;9.77;8.67;;;8.80;34.60;;;-142.21;38.21;112049.66;5073312;28;20530;-80
2022/03/08 08:50:49;;;;;;;8.67;7.87;;;8.80;34.40;;;-142.21;38.55;112049.66;5073179;28;20770;-80
2022/03/08 08:53:16;;;;;;;8.23;7.43;;;8.80;34.40;;;-142.21;38.06;112049.66;5089403;28;20506;-80
2022/03/08 08:55:43;;;;;;;10.37;8.20;;;9.00;34.40;;;-142.21;37.44;112049.66;5081695;28;20448;-78
2022/03/08 08:58:10;;;;;;;10.17;7.30;;;9.10;33.60;;;-142.21;39.13;112049.66;5060955;28;20542;-80
2022/03/08 09:00:38;;;;;;;8.07;7.27;;;9.20;34.00;;;-142.21;38.75;112049.66;5072862;28;20475;-79
2022/03/08 09:03:09;;;;;;;7.90;7.10;;;9.40;33.80;;;-142.21;36.56;112049.66;5072136;28;20447;-81
2022/03/08 09:05:37;;;;;;;8.70;7.10;;;9.80;33.60;;;-142.21;35.60;112049.66;5086211;28;20442;-80
2022/03/08 09:08:06;;;;;;;8.37;7.57;;;10.10;32.40;;;-142.21;36.59;112049.66;5080585;28;20439;-76
2022/03/08 09:10:33;;;;;;;8.83;7.23;;;10.10;31.30;;;-142.21;35.31;112049.66;5052897;28;20503;-77
2022/03/08 09:13:00;;;;;;;8.57;7.30;;;10.50;31.30;;;-142.21;36.44;112049.66;5064270;28;20533;-79
2022/03/08 09:15:35;;;;;;;7.87;7.13;;;11.10;31.10;;;-142.21;37.00;112049.66;5072627;28;20995;-79
2022/03/08 09:18:07;;;;;;;8.93;7.37;;;11.90;29.90;;;-142.21;35.50;112049.66;5073366;28;20423;-77
2022/03/08 09:20:34;;;;;;;7.53;6.87;;;12.60;28.50;;;-142.21;35.85;112049.66;5073096;28;20760;-80
2022/03/08 09:23:02;;;;;;;8.90;7.77;;;13.50;28.50;;;-142.21;34.97;112049.66;5072938;28;20475;-80
2022/03/08 09:25:38;;;;;;;9.83;8.93;;;13.80;28.00;;;-142.21;34.96;112049.66;5072292;28;20479;-76
2022/03/08 09:28:06;;;;;;;8.10;7.37;;;13.90;28.00;;;-142.21;35.56;112049.66;5071720;28;20447;-77
2022/03/08 09:30:36;;;;;;;8.57;7.70;;;15.20;28.50;;;-142.21;35.61;112049.66;5072164;28;20831;-77
2022/03/08 09:33:04;;;;;;;7.67;6.97;;;16.10;26.80;;;-142.21;35.48;112049.66;5073022;28;20310;-76
2022/03/08 09:35:38;;;;;;;8.47;7.57;;;17.30;26.10;;;-142.21;34.00;112049.66;5071429;28;20297;-78
2022/03/08 09:38:06;;;;;;;9.97;7.30;;;17.50;24.00;;;-142.21;33.08;112049.66;5072281;28;20279;-75
2022/03/08 09:40:33;;;;;;;7.87;7.07;;;18.40;24.70;;;-142.21;33.41;112049.66;5070560;28;20201;-77
2022/03/08 09:43:02;;;;;;;10.37;7.53;;;19.50;24.20;;;-142.21;32.74;112049.66;5081161;28;20227;-76
2022/03/08 09:45:30;;;;;;;7.87;7.10;;;20.50;24.20;;;-142.21;32.36;112049.66;5076845;28;20208;-77
2022/03/08 09:47:57;;;;;;;7.97;7.20;;;20.80;23.20;;;-142.21;33.33;112049.66;5071562;28;20201;-77
2022/03/08 09:50:24;;;;;;;8.23;7.40;;;21.10;22.50;;;-142.21;32.13;112049.66;5071551;28;20240;-77
2022/03/08 09:52:57;;;;;;;8.57;7.67;;;20.80;21.60;;;-142.21;31.56;112049.66;5070953;28;20221;-77
2022/03/08 09:55:26;;;;;;;9.17;8.07;;;21.20;22.10;;;-142.21;31.10;112049.66;5071960;28;20237;-76
2022/03/08 09:57:55;;;;;;;7.50;6.83;;;21.70;21.60;;;-142.21;33.29;112049.66;5071038;28;20197;-77
2022/03/08 10:00:25;;;;;;;8.37;7.47;;;22.20;22.40;;;-142.21;31.86;112049.66;5071299;28;20224;-76
2022/03/08 10:02:55;;;;;;;8.43;7.73;;;22.70;21.50;;;-142.21;31.43;112049.66;5074325;28;20190;-75